createdAt,value
2023-02-06T00:01:36.387Z,-1.80
2023-02-06T00:04:03.945Z,-1.80
2023-02-06T00:06:31.863Z,-1.80
2023-02-06T00:08:59.086Z,-1.90
2023-02-06T00:11:26.718Z,-1.90
2023-02-06T00:13:54.103Z,-2.00
2023-02-06T00:16:24.238Z,-2.00
2023-02-06T00:18:52.503Z,-1.90
2023-02-06T00:21:22.050Z,-1.90
2023-02-06T00:23:49.675Z,-1.90
2023-02-06T00:26:17.148Z,-2.10
2023-02-06T00:28:45.610Z,-2.00
2023-02-06T00:31:13.735Z,-2.10
2023-02-06T00:33:41.758Z,-2.10
2023-02-06T00:36:09.622Z,-2.10
2023-02-06T00:38:37.904Z,-2.10
2023-02-06T00:41:05.377Z,-2.10
2023-02-06T00:43:32.850Z,-2.00
2023-02-06T00:46:00.120Z,-2.00
2023-02-06T00:48:27.759Z,-2.00
2023-02-06T00:50:55.160Z,-1.90
2023-02-06T00:53:23.303Z,-1.90
2023-02-06T00:55:50.511Z,-1.90
2023-02-06T00:58:18.077Z,-1.90
2023-02-06T01:00:45.337Z,-1.90
2023-02-06T01:03:12.696Z,-1.90
2023-02-06T01:05:39.940Z,-2.00
2023-02-06T01:08:07.253Z,-2.10
2023-02-06T01:10:34.650Z,-2.20
2023-02-06T01:13:01.995Z,-2.20
2023-02-06T01:15:29.458Z,-2.30
2023-02-06T01:17:56.798Z,-2.40
2023-02-06T01:20:24.853Z,-2.50
2023-02-06T01:22:52.432Z,-2.50
2023-02-06T01:25:19.738Z,-2.60
2023-02-06T01:27:48.393Z,-2.60
2023-02-06T01:30:15.663Z,-2.50
2023-02-06T01:32:43.275Z,-2.40
2023-02-06T01:35:12.076Z,-2.30
2023-02-06T01:37:41.144Z,-2.30
2023-02-06T01:40:12.407Z,-2.30
2023-02-06T01:42:40.092Z,-2.40
2023-02-06T01:45:26.342Z,-2.30
2023-02-06T01:48:03.291Z,-2.40
2023-02-06T01:50:33.456Z,-2.40
2023-02-06T01:53:04.901Z,-2.40
2023-02-06T01:55:32.858Z,-2.30
2023-02-06T01:58:01.810Z,-2.40
2023-02-06T02:00:29.051Z,-2.40
2023-02-06T02:02:56.307Z,-2.50
2023-02-06T02:05:23.760Z,-2.50
2023-02-06T02:08:01.393Z,-2.50
2023-02-06T02:10:32.310Z,-2.60
2023-02-06T02:12:59.543Z,-2.50
2023-02-06T02:15:46.525Z,-2.40
2023-02-06T02:18:27.880Z,-2.50
2023-02-06T02:21:04.131Z,-2.50
2023-02-06T02:24:06.718Z,-2.50
2023-02-06T02:26:51.204Z,-2.50
2023-02-06T02:29:21.428Z,-2.50
2023-02-06T02:32:00.700Z,-2.50
2023-02-06T02:34:52.783Z,-2.50
2023-02-06T02:37:42.420Z,-2.60
2023-02-06T02:40:53.065Z,-2.70
2023-02-06T02:43:32.207Z,-2.70
2023-02-06T02:46:15.340Z,-2.70
2023-02-06T02:48:46.701Z,-2.70
2023-02-06T02:51:14.331Z,-2.70
2023-02-06T02:53:42.008Z,-2.60
2023-02-06T02:56:23.491Z,-2.60
2023-02-06T02:58:59.018Z,-2.50
2023-02-06T03:01:34.273Z,-2.70
2023-02-06T03:04:10.225Z,-2.70
2023-02-06T03:07:07.629Z,-2.60
2023-02-06T03:09:53.925Z,-2.60
2023-02-06T03:12:35.269Z,-2.70
2023-02-06T03:15:09.365Z,-2.70
2023-02-06T03:17:41.116Z,-2.80
2023-02-06T03:20:11.593Z,-2.80
2023-02-06T03:22:41.033Z,-2.80
2023-02-06T03:25:18.813Z,-2.90
2023-02-06T03:27:47.111Z,-2.90
2023-02-06T03:30:16.330Z,-2.90
2023-02-06T03:32:47.418Z,-2.90
2023-02-06T03:35:25.430Z,-2.90
2023-02-06T03:37:53.899Z,-2.90
2023-02-06T03:40:21.858Z,-3.00
2023-02-06T03:42:52.856Z,-3.00
2023-02-06T03:45:28.737Z,-3.00
2023-02-06T03:48:01.002Z,-3.00
2023-02-06T03:50:31.155Z,-3.00
2023-02-06T03:53:00.263Z,-3.00
2023-02-06T03:55:27.631Z,-3.00
2023-02-06T03:58:03.852Z,-2.90
2023-02-06T04:00:32.735Z,-2.90
2023-02-06T04:03:02.745Z,-3.00
2023-02-06T04:05:30.136Z,-2.90
2023-02-06T04:07:57.464Z,-2.90
2023-02-06T04:10:26.324Z,-2.80
2023-02-06T04:12:54.240Z,-2.90
2023-02-06T04:15:21.932Z,-2.90
2023-02-06T04:18:00.055Z,-2.90
2023-02-06T04:20:28.679Z,-2.90
2023-02-06T04:22:56.254Z,-3.00
2023-02-06T04:25:23.759Z,-3.00
2023-02-06T04:27:51.157Z,-2.90
2023-02-06T04:30:18.777Z,-3.00
2023-02-06T04:32:46.009Z,-3.20
2023-02-06T04:35:13.338Z,-3.20
2023-02-06T04:37:40.519Z,-3.30
2023-02-06T04:40:08.103Z,-3.30
2023-02-06T04:42:35.700Z,-3.30
2023-02-06T04:45:03.014Z,-3.40
2023-02-06T04:47:30.353Z,-3.40
2023-02-06T04:49:57.506Z,-3.40
2023-02-06T04:52:24.833Z,-3.40
2023-02-06T04:54:52.375Z,-3.40
2023-02-06T04:57:19.858Z,-3.30
2023-02-06T04:59:47.117Z,-3.40
2023-02-06T05:02:14.318Z,-3.30
2023-02-06T05:04:41.584Z,-3.20
2023-02-06T05:07:08.929Z,-3.10
2023-02-06T05:09:36.204Z,-3.20
2023-02-06T05:12:03.598Z,-3.20
2023-02-06T05:14:30.952Z,-3.20
2023-02-06T05:16:58.168Z,-3.10
2023-02-06T05:19:25.537Z,-3.10
2023-02-06T05:21:52.755Z,-3.00
2023-02-06T05:24:20.047Z,-3.00
2023-02-06T05:26:47.673Z,-3.00
2023-02-06T05:29:14.953Z,-2.90
2023-02-06T05:31:42.628Z,-2.90
2023-02-06T05:34:10.777Z,-2.90
2023-02-06T05:36:38.506Z,-2.80
2023-02-06T05:39:05.824Z,-2.80
2023-02-06T05:41:33.179Z,-2.80
2023-02-06T05:44:00.449Z,-2.90
2023-02-06T05:46:27.687Z,-3.00
2023-02-06T05:48:55.225Z,-3.00
2023-02-06T05:51:22.599Z,-2.90
2023-02-06T05:53:49.820Z,-3.00
2023-02-06T05:56:17.073Z,-3.10
2023-02-06T05:58:44.284Z,-3.10
2023-02-06T06:01:13.068Z,-3.10
2023-02-06T06:03:40.421Z,-3.10
2023-02-06T06:06:08.548Z,-3.10
2023-02-06T06:08:35.776Z,-3.10
2023-02-06T06:11:03.300Z,-3.00
2023-02-06T06:13:30.724Z,-3.00
2023-02-06T06:15:58.040Z,-3.00
2023-02-06T06:18:25.269Z,-3.10
2023-02-06T06:20:53.347Z,-3.00
2023-02-06T06:23:20.593Z,-3.00
2023-02-06T06:25:48.245Z,-2.90
2023-02-06T06:28:16.485Z,-3.00
2023-02-06T06:30:43.944Z,-3.10
2023-02-06T06:33:11.816Z,-3.10
2023-02-06T06:35:39.082Z,-3.10
2023-02-06T06:38:06.300Z,-3.10
2023-02-06T06:40:33.644Z,-3.10
2023-02-06T06:43:00.961Z,-3.00
2023-02-06T06:45:28.241Z,-3.00
2023-02-06T06:47:55.460Z,-2.90
2023-02-06T06:50:23.655Z,-2.80
2023-02-06T06:52:50.902Z,-2.70
2023-02-06T06:55:19.743Z,-2.60
2023-02-06T06:57:47.351Z,-2.60
2023-02-06T07:00:15.978Z,-2.60
2023-02-06T07:02:43.536Z,-2.70
2023-02-06T07:05:11.109Z,-2.70
2023-02-06T07:07:39.510Z,-2.70
2023-02-06T07:10:08.355Z,-2.70
2023-02-06T07:12:35.816Z,-2.70
2023-02-06T07:15:03.395Z,-2.70
2023-02-06T07:17:31.142Z,-2.70
2023-02-06T07:19:59.421Z,-2.70
2023-02-06T07:22:27.039Z,-2.70
2023-02-06T07:24:54.632Z,-2.80
2023-02-06T07:27:21.911Z,-2.80
2023-02-06T07:29:49.222Z,-2.80
2023-02-06T07:32:18.176Z,-2.80
2023-02-06T07:34:45.576Z,-2.80
2023-02-06T07:37:12.918Z,-2.90
2023-02-06T07:39:40.125Z,-2.80
2023-02-06T07:42:08.244Z,-2.70
2023-02-06T07:44:50.604Z,-2.70
2023-02-06T07:47:17.963Z,-2.80
2023-02-06T07:49:45.302Z,-2.80
2023-02-06T07:52:12.669Z,-2.90
2023-02-06T07:54:39.875Z,-2.80
2023-02-06T07:57:07.146Z,-2.70
2023-02-06T07:59:34.415Z,-2.70
2023-02-06T08:02:01.717Z,-2.70
2023-02-06T08:04:35.177Z,-2.70
2023-02-06T08:07:03.902Z,-2.60
2023-02-06T08:09:31.803Z,-2.50
2023-02-06T08:11:59.407Z,-2.50
2023-02-06T08:14:26.934Z,-2.40
2023-02-06T08:16:54.280Z,-2.30
2023-02-06T08:19:21.641Z,-2.20
2023-02-06T08:21:49.525Z,-2.20
2023-02-06T08:24:16.912Z,-2.10
2023-02-06T08:26:44.651Z,-2.10
2023-02-06T08:29:12.591Z,-2.10
2023-02-06T08:31:41.720Z,-2.00
2023-02-06T08:34:12.540Z,-2.00
2023-02-06T08:36:40.609Z,-1.90
2023-02-06T08:39:11.489Z,-2.00
2023-02-06T08:41:40.619Z,-1.90
2023-02-06T08:44:14.500Z,-1.90
2023-02-06T08:46:43.534Z,-1.90
2023-02-06T08:49:16.370Z,-1.80
2023-02-06T08:51:44.586Z,-1.70
2023-02-06T08:54:17.930Z,-1.70
2023-02-06T08:56:48.273Z,-1.60
2023-02-06T08:59:17.506Z,-1.50
2023-02-06T09:01:45.813Z,-1.40
2023-02-06T09:04:14.438Z,-1.40
2023-02-06T09:06:48.945Z,-1.30
2023-02-06T09:09:16.560Z,-1.30
2023-02-06T09:11:43.924Z,-1.30
2023-02-06T09:14:16.073Z,-1.10
2023-02-06T09:16:43.588Z,-1.10
2023-02-06T09:19:11.432Z,-1.10
2023-02-06T09:21:39.404Z,-1.10
2023-02-06T09:24:09.037Z,-1.10
2023-02-06T09:26:58.183Z,-1.20
2023-02-06T09:29:29.086Z,-1.20
2023-02-06T09:31:57.668Z,-1.20
2023-02-06T09:34:26.196Z,-1.30
2023-02-06T09:36:54.758Z,-1.20
2023-02-06T09:39:22.542Z,-1.10
2023-02-06T09:42:05.061Z,-0.90
2023-02-06T09:44:41.970Z,-0.70
2023-02-06T09:47:32.225Z,-0.60
2023-02-06T09:50:18.615Z,-0.80
2023-02-06T09:53:19.677Z,-0.90
2023-02-06T09:55:55.909Z,-0.90
2023-02-06T09:58:41.771Z,-0.80
2023-02-06T10:01:27.390Z,-0.70
2023-02-06T10:04:02.317Z,-0.60
2023-02-06T10:06:48.729Z,-0.60
2023-02-06T10:09:23.113Z,-0.60
2023-02-06T10:11:59.485Z,-0.50
2023-02-06T10:14:52.977Z,-0.50
2023-02-06T10:17:28.175Z,-0.40
2023-02-06T10:20:04.901Z,-0.40
2023-02-06T10:22:47.589Z,-0.40
2023-02-06T10:25:33.281Z,-0.40
2023-02-06T10:28:16.940Z,-0.40
2023-02-06T10:30:53.279Z,-0.30
2023-02-06T10:33:48.426Z,-0.20
2023-02-06T10:36:46.642Z,-0.10
2023-02-06T10:39:54.651Z,-0.20
2023-02-06T10:42:50.428Z,-0.30
2023-02-06T10:45:35.437Z,-0.30
2023-02-06T10:48:39.441Z,-0.10
2023-02-06T10:51:16.433Z,0.00
2023-02-06T10:53:51.996Z,-0.10
2023-02-06T10:56:25.641Z,-0.30
2023-02-06T10:58:55.006Z,-0.20
2023-02-06T11:01:26.805Z,-0.30
2023-02-06T11:04:10.504Z,-0.20
2023-02-06T11:06:40.229Z,-0.20
2023-02-06T11:09:07.521Z,0.00
2023-02-06T11:11:46.709Z,-0.10
2023-02-06T11:14:20.037Z,-0.20
2023-02-06T11:16:47.735Z,-0.10
2023-02-06T11:19:38.604Z,-0.10
2023-02-06T11:22:08.579Z,-0.10
2023-02-06T11:24:37.529Z,0.00
2023-02-06T11:27:18.560Z,0.10
2023-02-06T11:29:51.000Z,0.10
2023-02-06T11:32:52.874Z,0.20
2023-02-06T11:35:35.288Z,0.30
2023-02-06T11:38:14.417Z,0.40
2023-02-06T11:40:41.689Z,0.40
2023-02-06T11:43:20.867Z,0.40
2023-02-06T11:45:52.301Z,0.30
2023-02-06T11:48:39.769Z,0.40
2023-02-06T11:51:09.062Z,0.50
2023-02-06T11:53:37.353Z,0.50
2023-02-06T11:56:06.886Z,0.60
2023-02-06T11:58:34.566Z,0.60
2023-02-06T12:01:05.873Z,0.70
2023-02-06T12:03:49.853Z,0.80
2023-02-06T12:06:33.461Z,1.00
2023-02-06T12:09:03.667Z,1.10
2023-02-06T12:11:59.242Z,1.30
2023-02-06T12:14:44.009Z,1.50
2023-02-06T12:17:31.935Z,1.80
2023-02-06T12:20:05.403Z,2.00
2023-02-06T12:22:40.061Z,1.80
2023-02-06T12:25:24.464Z,1.60
2023-02-06T12:27:55.599Z,1.40
2023-02-06T12:30:28.724Z,1.50
2023-02-06T12:33:22.068Z,1.60
2023-02-06T12:35:55.780Z,1.60
2023-02-06T12:38:45.622Z,1.70
2023-02-06T12:41:27.937Z,1.90
2023-02-06T12:44:13.378Z,1.90
2023-02-06T12:46:43.159Z,1.80
2023-02-06T12:49:23.630Z,1.80
2023-02-06T12:51:50.931Z,1.90
2023-02-06T12:54:42.629Z,2.10
2023-02-06T12:57:29.570Z,2.10
2023-02-06T13:00:21.447Z,2.30
2023-02-06T13:03:06.609Z,2.60
2023-02-06T13:05:40.775Z,2.80
2023-02-06T13:08:15.508Z,3.00
2023-02-06T13:10:43.604Z,2.90
2023-02-06T13:13:38.330Z,2.80
2023-02-06T13:16:06.919Z,2.50
2023-02-06T13:18:45.545Z,2.30
2023-02-06T13:21:15.807Z,2.20
2023-02-06T13:24:10.415Z,2.00
2023-02-06T13:26:46.478Z,1.90
2023-02-06T13:29:40.145Z,1.90
2023-02-06T13:32:15.113Z,1.90
2023-02-06T13:34:43.481Z,1.80
2023-02-06T13:37:20.352Z,1.70
2023-02-06T13:40:09.211Z,1.60
2023-02-06T13:42:57.354Z,1.50
2023-02-06T13:45:33.435Z,1.50
2023-02-06T13:48:28.518Z,1.60
2023-02-06T13:51:14.119Z,1.50
2023-02-06T13:54:12.162Z,1.50
2023-02-06T13:56:58.085Z,1.60
2023-02-06T13:59:29.047Z,1.60
2023-02-06T14:01:56.787Z,1.60
2023-02-06T14:04:31.308Z,1.60
2023-02-06T14:07:07.417Z,1.70
2023-02-06T14:09:52.640Z,1.80
2023-02-06T14:12:33.219Z,1.80
2023-02-06T14:15:21.534Z,2.10
2023-02-06T14:18:27.018Z,2.50
2023-02-06T14:21:02.948Z,2.60
2023-02-06T14:24:12.791Z,2.50
2023-02-06T14:27:15.498Z,2.30
2023-02-06T14:30:02.478Z,2.40
2023-02-06T14:33:01.490Z,2.10
2023-02-06T14:36:11.730Z,1.90
2023-02-06T14:39:29.723Z,1.70
2023-02-06T14:41:57.850Z,1.70
2023-02-06T14:44:30.201Z,1.70
2023-02-06T14:46:58.111Z,1.70
2023-02-06T14:49:36.290Z,1.60
2023-02-06T14:52:04.977Z,1.50
2023-02-06T14:54:38.503Z,1.50
2023-02-06T14:57:13.903Z,1.50
2023-02-06T15:00:01.245Z,1.50
2023-02-06T15:02:36.701Z,1.40
2023-02-06T15:05:05.547Z,1.40
2023-02-06T15:07:35.527Z,1.40
2023-02-06T15:10:06.290Z,1.40
2023-02-06T15:12:34.781Z,1.40
2023-02-06T15:15:24.858Z,1.50
2023-02-06T15:17:59.602Z,1.50
2023-02-06T15:20:31.377Z,1.40
2023-02-06T15:23:16.994Z,1.40
2023-02-06T15:25:59.321Z,1.30
2023-02-06T15:28:30.010Z,1.30
2023-02-06T15:30:59.222Z,1.40
2023-02-06T15:33:29.438Z,1.30
2023-02-06T15:36:02.303Z,1.20
2023-02-06T15:38:33.069Z,1.20
2023-02-06T15:41:06.519Z,1.30
2023-02-06T15:43:34.523Z,1.30
2023-02-06T15:46:04.586Z,1.20
2023-02-06T15:48:43.498Z,1.30
2023-02-06T15:51:16.880Z,1.30
2023-02-06T15:53:48.103Z,1.30
2023-02-06T15:56:26.278Z,1.30
2023-02-06T15:59:03.699Z,1.30
2023-02-06T16:01:37.113Z,1.30
2023-02-06T16:04:29.299Z,1.30
2023-02-06T16:07:16.842Z,1.20
2023-02-06T16:09:51.261Z,1.30
2023-02-06T16:12:18.671Z,1.30
2023-02-06T16:15:30.268Z,1.30
2023-02-06T16:18:00.399Z,1.30
2023-02-06T16:20:37.271Z,1.30
2023-02-06T16:23:19.686Z,1.30
2023-02-06T16:26:05.311Z,1.30
2023-02-06T16:28:32.511Z,1.30
2023-02-06T16:31:04.685Z,1.30
2023-02-06T16:33:39.624Z,1.20
2023-02-06T16:36:16.056Z,1.30
2023-02-06T16:38:48.413Z,1.30
2023-02-06T16:41:37.604Z,1.30
2023-02-06T16:44:13.384Z,1.30
2023-02-06T16:46:40.923Z,1.20
2023-02-06T16:49:16.703Z,1.20
2023-02-06T16:51:45.625Z,1.20
2023-02-06T16:54:26.092Z,1.10
2023-02-06T16:56:55.821Z,1.10
2023-02-06T16:59:23.478Z,1.00
2023-02-06T17:01:50.761Z,0.90
2023-02-06T17:04:17.878Z,0.90
2023-02-06T17:06:45.217Z,0.90
2023-02-06T17:09:14.267Z,0.90
2023-02-06T17:11:41.609Z,0.90
2023-02-06T17:14:10.435Z,0.80
2023-02-06T17:16:37.733Z,0.80
2023-02-06T17:19:04.971Z,0.80
2023-02-06T17:21:33.205Z,0.80
2023-02-06T17:24:00.633Z,0.70
2023-02-06T17:26:27.797Z,0.70
2023-02-06T17:28:55.088Z,0.70
2023-02-06T17:31:22.729Z,0.70
2023-02-06T17:33:50.077Z,0.70
2023-02-06T17:36:22.692Z,0.70
2023-02-06T17:38:49.935Z,0.70
2023-02-06T17:41:17.166Z,0.70
2023-02-06T17:43:44.376Z,0.60
2023-02-06T17:46:11.900Z,0.70
2023-02-06T17:48:42.737Z,0.70
2023-02-06T17:51:10.562Z,0.70
2023-02-06T17:53:38.114Z,0.60
2023-02-06T17:56:07.544Z,0.60
2023-02-06T17:58:35.398Z,0.60
2023-02-06T18:01:02.761Z,0.60
2023-02-06T18:03:30.052Z,0.60
2023-02-06T18:06:01.227Z,0.50
2023-02-06T18:08:29.893Z,0.50
2023-02-06T18:10:57.119Z,0.50
2023-02-06T18:13:24.662Z,0.50
2023-02-06T18:15:54.817Z,0.50
2023-02-06T18:18:24.349Z,0.50
2023-02-06T18:20:52.335Z,0.50
2023-02-06T18:23:19.608Z,0.50
2023-02-06T18:25:47.010Z,0.50
2023-02-06T18:28:15.130Z,0.50
2023-02-06T18:30:42.854Z,0.50
2023-02-06T18:33:12.898Z,0.50
2023-02-06T18:35:45.649Z,0.50
2023-02-06T18:38:13.823Z,0.40
2023-02-06T18:40:43.016Z,0.40
2023-02-06T18:43:10.328Z,0.50
2023-02-06T18:45:39.040Z,0.50
2023-02-06T18:48:11.603Z,0.50
2023-02-06T18:50:41.192Z,0.50
2023-02-06T18:53:09.334Z,0.40
2023-02-06T18:55:37.442Z,0.50
2023-02-06T18:58:06.385Z,0.40
2023-02-06T19:00:36.012Z,0.40
2023-02-06T19:03:04.215Z,0.30
2023-02-06T19:05:36.032Z,0.30
2023-02-06T19:08:03.268Z,0.30
2023-02-06T19:10:30.608Z,0.30
2023-02-06T19:12:57.757Z,0.30
2023-02-06T19:15:25.145Z,0.20
2023-02-06T19:17:52.399Z,0.20
2023-02-06T19:20:19.965Z,0.10
2023-02-06T19:22:47.235Z,0.10
2023-02-06T19:25:14.824Z,0.10
2023-02-06T19:27:42.180Z,0.20
2023-02-06T19:30:09.884Z,0.20
2023-02-06T19:32:37.198Z,0.00
2023-02-06T19:35:05.229Z,-0.10
2023-02-06T19:37:32.991Z,0.00
2023-02-06T19:40:00.357Z,-0.10
2023-02-06T19:42:27.718Z,-0.20
2023-02-06T19:44:55.074Z,-0.20
2023-02-06T19:47:22.534Z,-0.20
2023-02-06T19:49:52.461Z,-0.20
2023-02-06T19:52:20.252Z,-0.20
2023-02-06T19:54:47.976Z,-0.10
2023-02-06T19:57:16.050Z,-0.10
2023-02-06T19:59:43.531Z,-0.10
2023-02-06T20:02:15.561Z,-0.10
2023-02-06T20:04:43.181Z,-0.10
2023-02-06T20:07:10.362Z,-0.20
2023-02-06T20:09:41.909Z,-0.10
2023-02-06T20:12:12.441Z,-0.10
2023-02-06T20:14:39.690Z,-0.20
2023-02-06T20:17:07.159Z,-0.30
2023-02-06T20:19:34.573Z,-0.30
2023-02-06T20:22:03.225Z,-0.30
2023-02-06T20:24:32.571Z,-0.30
2023-02-06T20:27:03.167Z,-0.20
2023-02-06T20:29:37.876Z,-0.20
2023-02-06T20:32:06.604Z,-0.20
2023-02-06T20:34:34.942Z,-0.40
2023-02-06T20:37:02.254Z,-0.50
2023-02-06T20:39:31.065Z,-0.50
2023-02-06T20:41:59.174Z,-0.60
2023-02-06T20:44:27.355Z,-0.60
2023-02-06T20:46:54.946Z,-0.60
2023-02-06T20:49:25.042Z,-0.60
2023-02-06T20:51:52.788Z,-0.60
2023-02-06T20:54:21.249Z,-0.60
2023-02-06T20:56:48.911Z,-0.70
2023-02-06T20:59:17.871Z,-0.70
2023-02-06T21:01:45.310Z,-0.80
2023-02-06T21:04:14.898Z,-0.80
2023-02-06T21:06:43.346Z,-0.80
2023-02-06T21:09:12.019Z,-0.80
2023-02-06T21:11:44.652Z,-0.80
2023-02-06T21:14:12.813Z,-0.90
2023-02-06T21:16:41.164Z,-1.00
2023-02-06T21:19:12.649Z,-1.00
2023-02-06T21:21:41.002Z,-1.00
2023-02-06T21:24:09.454Z,-1.00
2023-02-06T21:26:37.893Z,-1.00
2023-02-06T21:29:07.805Z,-1.00
2023-02-06T21:31:38.646Z,-1.00
2023-02-06T21:34:13.871Z,-1.10
2023-02-06T21:36:42.157Z,-1.00
2023-02-06T21:39:11.236Z,-1.00
2023-02-06T21:41:41.387Z,-1.10
2023-02-06T21:44:08.660Z,-1.10
2023-02-06T21:46:36.058Z,-1.10
2023-02-06T21:49:06.518Z,-1.10
2023-02-06T21:51:33.902Z,-1.20
2023-02-06T21:54:01.416Z,-1.20
2023-02-06T21:56:29.244Z,-1.20
2023-02-06T21:58:57.661Z,-1.20
2023-02-06T22:01:30.440Z,-1.30
2023-02-06T22:03:59.744Z,-1.20
2023-02-06T22:06:28.915Z,-1.20
2023-02-06T22:09:00.504Z,-1.20
2023-02-06T22:11:29.728Z,-1.10
2023-02-06T22:14:02.934Z,-1.20
2023-02-06T22:16:30.954Z,-1.30
2023-02-06T22:18:58.378Z,-1.40
2023-02-06T22:21:27.977Z,-1.40
2023-02-06T22:24:04.581Z,-1.40
2023-02-06T22:26:34.325Z,-1.40
2023-02-06T22:29:01.611Z,-1.40
2023-02-06T22:31:32.775Z,-1.30
2023-02-06T22:34:00.863Z,-1.30
2023-02-06T22:36:30.824Z,-1.30
2023-02-06T22:39:00.821Z,-1.40
2023-02-06T22:41:28.723Z,-1.40
2023-02-06T22:43:56.350Z,-1.50
2023-02-06T22:46:26.727Z,-1.50
2023-02-06T22:48:54.436Z,-1.40
2023-02-06T22:51:22.247Z,-1.50
2023-02-06T22:53:50.117Z,-1.60
2023-02-06T22:56:26.965Z,-1.50
2023-02-06T22:59:06.638Z,-1.50
2023-02-06T23:01:48.654Z,-1.40
2023-02-06T23:04:21.209Z,-1.40
2023-02-06T23:06:49.290Z,-1.40
2023-02-06T23:09:19.891Z,-1.50
2023-02-06T23:11:47.720Z,-1.40
2023-02-06T23:14:15.794Z,-1.50
2023-02-06T23:16:43.195Z,-1.50
2023-02-06T23:19:12.284Z,-1.70
2023-02-06T23:21:41.348Z,-1.70
2023-02-06T23:24:09.896Z,-1.80
2023-02-06T23:26:37.899Z,-1.80
2023-02-06T23:29:07.953Z,-1.80
2023-02-06T23:31:36.342Z,-1.80
2023-02-06T23:34:03.901Z,-1.90
2023-02-06T23:36:31.128Z,-1.80
2023-02-06T23:39:01.652Z,-1.90
2023-02-06T23:41:29.380Z,-1.90
2023-02-06T23:43:59.759Z,-1.90
2023-02-06T23:46:28.651Z,-1.80
2023-02-06T23:48:56.571Z,-1.80
2023-02-06T23:51:24.584Z,-1.80
2023-02-06T23:53:52.068Z,-1.80
2023-02-06T23:56:25.600Z,-1.80
2023-02-06T23:58:54.588Z,-1.90
